Time;durP1;ratioP1;P1;durP2;ratioP2;P2;SDS_P1;SDS_P2;PMS_P1;PMS_P2;Temp;Humidity;BMP_temperature;BMP_pressure;BME280_temperature;BME280_humidity;BME280_pressure;Samples;Min_cycle;Max_cycle;Signal;HPM_P1;HPM_P2
2023/12/26 00:01:13;;;;;;;14.10;9.07;;;19.20;59.40;;;;;;4969535;28;20041;-66
2023/12/26 00:03:38;;;;;;;13.18;8.38;;;19.10;59.70;;;;;;4975284;28;20030;-64
2023/12/26 00:06:04;;;;;;;15.30;8.70;;;19.10;59.70;;;;;;4971813;28;20114;-67
2023/12/26 00:08:29;;;;;;;15.25;8.95;;;19.10;59.90;;;;;;4971867;28;20030;-67
2023/12/26 00:10:55;;;;;;;14.00;9.18;;;19.00;59.90;;;;;;4972897;28;20062;-67
2023/12/26 00:13:21;;;;;;;16.90;9.35;;;19.00;60.10;;;;;;4970195;28;20101;-67
2023/12/26 00:15:46;;;;;;;12.80;8.25;;;18.90;60.10;;;;;;4952559;28;20469;-67
2023/12/26 00:18:12;;;;;;;13.90;8.38;;;18.90;60.20;;;;;;4966755;28;20532;-66
2023/12/26 00:20:42;;;;;;;14.88;7.97;;;18.90;60.30;;;;;;4968628;28;20034;-66
2023/12/26 00:23:08;;;;;;;13.27;7.97;;;18.80;60.30;;;;;;4971976;28;20037;-67
2023/12/26 00:25:34;;;;;;;14.98;8.52;;;18.80;61.00;;;;;;4971163;28;20031;-67
2023/12/26 00:27:59;;;;;;;12.95;7.65;;;18.70;60.40;;;;;;4971178;28;20031;-66
2023/12/26 00:30:24;;;;;;;11.75;7.60;;;18.70;60.50;;;;;;4961646;28;20042;-66
2023/12/26 00:32:50;;;;;;;16.27;8.60;;;18.70;60.60;;;;;;4972059;28;20037;-66
2023/12/26 00:35:15;;;;;;;14.10;7.20;;;18.70;60.70;;;;;;4969237;28;20053;-66
2023/12/26 00:37:41;;;;;;;12.50;7.25;;;18.70;60.80;;;;;;4956766;28;20031;-67
2023/12/26 00:40:07;;;;;;;13.88;8.32;;;18.60;60.80;;;;;;4970305;28;20089;-67
2023/12/26 00:42:32;;;;;;;15.02;8.43;;;18.60;60.90;;;;;;4971330;28;20130;-66
2023/12/26 00:44:58;;;;;;;10.35;6.65;;;18.60;60.80;;;;;;4970853;28;20138;-67
2023/12/26 00:47:24;;;;;;;13.90;7.93;;;18.60;61.00;;;;;;4974791;28;20039;-66
2023/12/26 00:49:49;;;;;;;11.40;6.68;;;18.60;61.10;;;;;;4972971;28;20031;-66
2023/12/26 00:52:15;;;;;;;10.68;6.93;;;18.50;61.10;;;;;;4972403;28;20379;-67
2023/12/26 00:54:40;;;;;;;10.32;6.05;;;18.50;61.10;;;;;;4970173;28;20027;-66
2023/12/26 00:57:06;;;;;;;12.48;7.85;;;18.50;61.20;;;;;;4971284;28;20058;-66
2023/12/26 00:59:31;;;;;;;11.65;6.93;;;18.50;61.40;;;;;;4971351;28;20039;-67
2023/12/26 01:02:01;;;;;;;12.95;7.53;;;18.50;61.50;;;;;;4970567;28;20039;-66
2023/12/26 01:04:26;;;;;;;13.45;8.07;;;18.50;61.50;;;;;;4965533;28;20034;-66
2023/12/26 01:06:52;;;;;;;12.77;6.78;;;18.40;61.40;;;;;;4969820;28;20031;-66
2023/12/26 01:09:17;;;;;;;12.15;7.50;;;18.40;61.40;;;;;;4969297;28;20034;-66
2023/12/26 01:11:43;;;;;;;10.85;6.55;;;18.40;61.50;;;;;;4971619;28;20038;-66
2023/12/26 01:14:08;;;;;;;8.85;6.43;;;18.40;61.30;;;;;;4968412;28;20332;-66
2023/12/26 01:16:34;;;;;;;8.40;6.10;;;18.40;61.20;;;;;;4970990;28;20031;-66
2023/12/26 01:18:59;;;;;;;9.45;6.07;;;18.40;61.40;;;;;;4976555;28;20050;-67
2023/12/26 01:21:25;;;;;;;8.77;5.63;;;18.40;61.40;;;;;;4969013;28;20063;-66
2023/12/26 01:23:52;;;;;;;10.27;5.60;;;18.30;61.20;;;;;;4959142;28;20942;-67
2023/12/26 01:26:18;;;;;;;9.30;5.78;;;18.30;61.10;;;;;;4970538;28;20182;-67
2023/12/26 01:28:43;;;;;;;10.43;6.97;;;18.30;61.40;;;;;;4973279;28;20438;-66
2023/12/26 01:31:09;;;;;;;7.80;5.35;;;18.30;61.40;;;;;;4953459;28;20031;-65
2023/12/26 01:33:34;;;;;;;9.10;5.85;;;18.30;61.60;;;;;;4949216;28;20403;-66
2023/12/26 01:36:00;;;;;;;11.13;5.70;;;18.30;61.50;;;;;;4948206;28;20175;-66
2023/12/26 01:38:25;;;;;;;9.77;5.85;;;18.30;61.50;;;;;;4945973;28;20023;-66
2023/12/26 01:40:51;;;;;;;9.13;5.72;;;18.30;61.80;;;;;;4969904;28;20113;-67
2023/12/26 01:43:17;;;;;;;8.68;5.88;;;18.30;61.70;;;;;;4973003;28;20037;-66
2023/12/26 01:45:42;;;;;;;8.38;5.40;;;18.20;62.20;;;;;;4972691;28;20027;-66
2023/12/26 01:48:10;;;;;;;7.50;5.25;;;18.20;61.80;;;;;;4969951;28;20042;-66
2023/12/26 01:50:37;;;;;;;8.55;5.32;;;18.20;61.70;;;;;;4966279;28;20494;-66
2023/12/26 01:53:03;;;;;;;8.18;4.65;;;18.20;61.70;;;;;;4971909;28;20114;-65
2023/12/26 01:55:29;;;;;;;9.82;5.22;;;18.20;61.70;;;;;;4967858;28;20027;-67
2023/12/26 01:57:57;;;;;;;9.60;5.45;;;18.20;61.70;;;;;;4965357;28;20133;-66
2023/12/26 02:00:23;;;;;;;8.45;5.07;;;18.20;61.70;;;;;;4967076;28;20039;-66
2023/12/26 02:02:52;;;;;;;7.75;4.90;;;18.20;61.90;;;;;;4962692;28;20085;-66
2023/12/26 02:05:17;;;;;;;8.98;5.50;;;18.20;61.90;;;;;;4965759;28;20493;-65
2023/12/26 02:07:43;;;;;;;8.07;5.00;;;18.20;61.90;;;;;;4962834;28;20038;-66
2023/12/26 02:10:09;;;;;;;8.20;4.93;;;18.20;61.80;;;;;;4963637;28;20031;-65
2023/12/26 02:12:34;;;;;;;7.72;4.80;;;18.10;61.70;;;;;;4959833;28;20094;-67
2023/12/26 02:15:01;;;;;;;9.65;5.38;;;18.10;61.80;;;;;;4962412;28;20045;-65
2023/12/26 02:17:29;;;;;;;7.60;4.50;;;18.10;61.80;;;;;;4963517;28;20378;-61
2023/12/26 02:19:54;;;;;;;7.97;5.18;;;18.10;61.80;;;;;;4963341;28;20030;-66
2023/12/26 02:22:20;;;;;;;6.05;3.83;;;18.10;61.80;;;;;;4963172;28;20564;-66
2023/12/26 02:24:47;;;;;;;7.13;4.53;;;18.10;61.90;;;;;;4963132;28;20561;-66
2023/12/26 02:27:16;;;;;;;6.07;4.10;;;18.10;62.10;;;;;;4962895;28;20042;-67
2023/12/26 02:29:44;;;;;;;6.53;4.20;;;18.10;62.00;;;;;;4957404;28;20034;-67
2023/12/26 02:32:10;;;;;;;6.57;4.68;;;18.10;61.90;;;;;;4964610;28;20041;-66
2023/12/26 02:34:36;;;;;;;7.13;4.32;;;18.10;62.00;;;;;;4966517;28;20050;-66
2023/12/26 02:37:02;;;;;;;7.00;3.90;;;18.10;61.90;;;;;;4964035;28;20736;-66
2023/12/26 02:39:28;;;;;;;6.97;4.45;;;18.10;62.00;;;;;;4966836;28;20043;-66
2023/12/26 02:41:53;;;;;;;7.40;3.90;;;18.10;61.90;;;;;;4966535;28;20402;-66
2023/12/26 02:44:19;;;;;;;5.78;3.95;;;18.00;61.80;;;;;;4965966;28;20038;-66
2023/12/26 02:46:44;;;;;;;6.60;4.45;;;18.00;61.90;;;;;;4980511;28;20063;-67
2023/12/26 02:49:10;;;;;;;6.57;4.30;;;18.00;62.00;;;;;;4966907;28;20038;-66
2023/12/26 02:51:35;;;;;;;7.68;4.30;;;18.00;62.00;;;;;;4967231;28;20065;-66
2023/12/26 02:54:01;;;;;;;6.32;4.07;;;18.00;62.00;;;;;;4966526;28;20081;-66
2023/12/26 02:56:26;;;;;;;7.40;4.55;;;18.00;61.90;;;;;;4967182;28;20038;-66
2023/12/26 02:58:52;;;;;;;7.15;3.92;;;18.00;62.00;;;;;;4966622;28;20027;-66
2023/12/26 03:01:17;;;;;;;4.93;3.55;;;18.00;62.00;;;;;;4957660;28;20709;-63
2023/12/26 03:03:43;;;;;;;5.35;3.60;;;18.00;62.00;;;;;;4960783;28;20030;-65
2023/12/26 03:06:08;;;;;;;5.57;3.63;;;18.00;62.00;;;;;;4962745;28;20457;-67
2023/12/26 03:08:34;;;;;;;5.07;3.55;;;18.00;61.90;;;;;;4962589;28;20035;-66
2023/12/26 03:10:59;;;;;;;4.85;3.20;;;18.00;61.90;;;;;;4961897;28;20983;-65
2023/12/26 03:13:24;;;;;;;5.50;3.22;;;18.00;62.00;;;;;;4962148;28;20113;-67
2023/12/26 03:15:50;;;;;;;6.90;4.15;;;18.00;61.90;;;;;;4964098;28;20031;-66
2023/12/26 03:18:15;;;;;;;6.97;3.95;;;18.00;61.90;;;;;;4965546;28;20054;-66
2023/12/26 03:20:41;;;;;;;6.57;3.58;;;17.90;61.90;;;;;;4965428;28;20110;-64
2023/12/26 03:23:06;;;;;;;6.53;3.65;;;18.00;61.90;;;;;;4965602;28;20047;-65
2023/12/26 03:25:32;;;;;;;4.03;2.88;;;17.90;62.00;;;;;;4966453;28;20129;-66
2023/12/26 03:27:57;;;;;;;4.40;3.40;;;18.00;62.10;;;;;;4965341;28;20678;-67
2023/12/26 03:30:23;;;;;;;4.40;3.15;;;17.90;62.00;;;;;;4966763;28;20042;-63
2023/12/26 03:32:48;;;;;;;5.82;3.17;;;17.90;61.90;;;;;;4965146;28;20045;-66
2023/12/26 03:35:14;;;;;;;3.78;2.72;;;17.90;62.00;;;;;;4969814;28;20041;-66
2023/12/26 03:37:39;;;;;;;4.78;2.80;;;17.90;61.90;;;;;;4966138;28;20065;-66
2023/12/26 03:40:06;;;;;;;4.53;2.83;;;17.90;61.90;;;;;;4965797;28;20039;-65
2023/12/26 03:42:32;;;;;;;4.72;3.13;;;17.90;62.00;;;;;;4967644;28;20031;-66
2023/12/26 03:44:57;;;;;;;4.03;2.80;;;17.90;62.00;;;;;;4966171;28;20093;-66
2023/12/26 03:47:22;;;;;;;4.00;2.60;;;17.90;61.90;;;;;;4965904;28;20637;-66
2023/12/26 03:49:48;;;;;;;4.00;3.13;;;17.90;61.90;;;;;;4966607;28;20054;-67
2023/12/26 03:52:13;;;;;;;4.80;3.10;;;17.90;62.10;;;;;;4961059;28;20050;-66
2023/12/26 03:54:40;;;;;;;4.32;2.80;;;17.90;62.00;;;;;;4966610;28;20027;-66
2023/12/26 03:57:07;;;;;;;4.53;2.70;;;17.90;61.90;;;;;;4965071;28;20049;-66
2023/12/26 03:59:32;;;;;;;4.13;2.85;;;17.90;62.00;;;;;;4968907;28;20525;-66
2023/12/26 04:01:58;;;;;;;5.25;3.25;;;17.90;62.00;;;;;;4961584;28;20038;-66
2023/12/26 04:04:24;;;;;;;4.47;3.00;;;17.90;61.90;;;;;;4967288;28;20093;-66
2023/12/26 04:06:49;;;;;;;3.55;2.70;;;17.90;61.90;;;;;;4966883;28;20041;-66
2023/12/26 04:09:18;;;;;;;4.30;2.47;;;17.90;62.00;;;;;;4968607;28;20690;-65
2023/12/26 04:11:44;;;;;;;6.28;2.50;;;17.80;61.90;;;;;;4963668;28;20472;-66
2023/12/26 04:14:09;;;;;;;4.47;3.00;;;17.80;62.00;;;;;;4969764;28;20118;-66
2023/12/26 04:16:35;;;;;;;4.28;2.25;;;17.80;61.90;;;;;;4965385;28;20034;-66
2023/12/26 04:19:00;;;;;;;4.85;2.40;;;17.80;61.90;;;;;;4970971;28;20105;-66
2023/12/26 04:21:26;;;;;;;3.75;2.58;;;17.80;61.80;;;;;;4972213;28;20019;-67
2023/12/26 04:23:51;;;;;;;4.32;3.10;;;17.80;61.90;;;;;;4966683;28;20097;-66
2023/12/26 04:26:16;;;;;;;3.40;2.50;;;17.80;61.90;;;;;;4970698;28;20132;-66
2023/12/26 04:28:42;;;;;;;4.05;2.20;;;17.80;61.90;;;;;;4970124;28;20452;-64
2023/12/26 04:31:07;;;;;;;3.38;2.53;;;17.80;61.90;;;;;;4970609;28;20031;-67
2023/12/26 04:33:33;;;;;;;3.28;2.28;;;17.80;61.90;;;;;;4969122;28;20027;-66
2023/12/26 04:35:58;;;;;;;3.10;2.25;;;17.80;61.80;;;;;;4970915;28;20426;-67
2023/12/26 04:38:24;;;;;;;4.05;2.45;;;17.80;61.90;;;;;;4969409;28;20050;-66
2023/12/26 04:40:49;;;;;;;4.40;2.40;;;17.80;62.00;;;;;;4964246;28;20038;-66
2023/12/26 04:43:17;;;;;;;3.67;2.40;;;17.80;61.90;;;;;;4969519;28;20026;-67
2023/12/26 04:45:42;;;;;;;3.50;2.20;;;17.80;61.90;;;;;;4970055;28;20023;-61
2023/12/26 04:48:08;;;;;;;3.45;2.40;;;17.80;61.90;;;;;;4969629;28;20049;-65
2023/12/26 04:50:34;;;;;;;3.15;1.83;;;17.80;61.90;;;;;;4969123;28;20030;-64
2023/12/26 04:53:01;;;;;;;2.60;2.03;;;17.80;61.90;;;;;;4968628;28;20035;-66
2023/12/26 04:55:26;;;;;;;3.17;1.98;;;17.80;62.00;;;;;;4971832;28;20035;-66
2023/12/26 04:57:52;;;;;;;4.60;2.05;;;17.80;62.00;;;;;;4969321;28;20129;-67
2023/12/26 05:00:18;;;;;;;3.42;2.17;;;17.80;62.10;;;;;;4970850;28;20074;-66
2023/12/26 05:02:43;;;;;;;3.20;1.85;;;17.80;61.90;;;;;;4969221;28;20039;-65
2023/12/26 05:05:08;;;;;;;3.42;1.75;;;17.70;61.90;;;;;;4970553;28;20035;-66
2023/12/26 05:07:34;;;;;;;2.95;1.90;;;17.70;61.90;;;;;;4969684;28;20520;-61
2023/12/26 05:09:59;;;;;;;3.22;1.95;;;17.70;61.90;;;;;;4968894;28;20093;-66
2023/12/26 05:12:27;;;;;;;2.95;2.13;;;17.70;61.90;;;;;;4968633;28;20033;-66
2023/12/26 05:14:52;;;;;;;5.57;2.40;;;17.70;61.90;;;;;;4968695;28;20058;-66
2023/12/26 05:17:18;;;;;;;2.53;1.80;;;17.80;62.00;;;;;;4969738;28;22832;-66
2023/12/26 05:19:44;;;;;;;3.13;1.80;;;17.70;62.00;;;;;;4968186;28;20027;-64
2023/12/26 05:22:10;;;;;;;3.55;2.15;;;17.70;62.00;;;;;;4967775;28;20085;-66
2023/12/26 05:24:35;;;;;;;3.47;1.95;;;17.70;62.00;;;;;;4968852;28;20041;-66
2023/12/26 05:27:01;;;;;;;2.88;1.67;;;17.70;62.00;;;;;;4967375;28;20027;-66
2023/12/26 05:29:26;;;;;;;3.20;2.00;;;17.70;61.90;;;;;;4966598;28;20039;-65
2023/12/26 05:31:52;;;;;;;3.10;1.85;;;17.70;62.00;;;;;;4963578;28;20039;-65
2023/12/26 05:34:18;;;;;;;2.90;1.77;;;17.70;62.00;;;;;;4961804;28;20041;-64
2023/12/26 05:36:44;;;;;;;4.88;1.92;;;17.70;61.90;;;;;;4967893;28;20039;-64
2023/12/26 05:39:10;;;;;;;2.83;1.70;;;17.70;62.00;;;;;;4967651;28;20038;-66
2023/12/26 05:41:36;;;;;;;2.15;1.60;;;17.70;61.90;;;;;;4967721;28;20034;-64
2023/12/26 05:44:01;;;;;;;2.70;1.60;;;17.70;61.90;;;;;;4967270;28;20031;-65
2023/12/26 05:46:31;;;;;;;2.67;1.70;;;17.70;62.00;;;;;;4968320;28;20413;-67
2023/12/26 05:48:56;;;;;;;2.00;1.40;;;17.80;61.70;;;;;;4967729;28;20502;-65
2023/12/26 05:51:23;;;;;;;2.50;1.48;;;17.90;61.50;;;;;;4967376;28;20033;-66
2023/12/26 05:53:48;;;;;;;3.05;2.13;;;18.00;61.20;;;;;;4965987;28;20461;-66
2023/12/26 05:56:14;;;;;;;2.25;1.50;;;18.10;60.90;;;;;;4971303;28;20035;-64
2023/12/26 05:58:40;;;;;;;2.80;1.52;;;18.20;60.60;;;;;;4972578;28;20242;-64
2023/12/26 06:01:09;;;;;;;1.95;1.40;;;18.30;60.30;;;;;;4973788;28;20445;-67
2023/12/26 06:03:35;;;;;;;3.08;1.65;;;18.40;59.90;;;;;;4970228;28;20142;-67
2023/12/26 06:06:00;;;;;;;2.20;1.70;;;18.60;60.20;;;;;;4969939;28;20292;-67
2023/12/26 06:08:26;;;;;;;2.03;1.40;;;18.70;59.30;;;;;;4970695;28;20038;-65
2023/12/26 06:10:52;;;;;;;2.45;1.60;;;18.80;59.10;;;;;;4967148;28;20035;-66
2023/12/26 06:13:17;;;;;;;1.75;1.23;;;18.90;59.00;;;;;;4966924;28;20104;-66
2023/12/26 06:15:43;;;;;;;1.88;1.27;;;19.00;58.80;;;;;;4968890;28;20576;-66
2023/12/26 06:18:08;;;;;;;2.17;1.50;;;19.10;58.60;;;;;;4969765;28;20041;-66
2023/12/26 06:20:34;;;;;;;2.08;1.40;;;19.10;58.30;;;;;;4971338;28;20019;-64
2023/12/26 06:22:59;;;;;;;1.67;1.27;;;19.20;58.30;;;;;;4981941;28;20169;-66
2023/12/26 06:25:25;;;;;;;1.42;1.05;;;19.20;58.20;;;;;;4966915;28;20413;-66
2023/12/26 06:27:51;;;;;;;1.38;0.93;;;19.20;58.20;;;;;;4968804;28;20041;-66
2023/12/26 06:30:16;;;;;;;1.75;1.30;;;19.20;58.20;;;;;;4969145;28;20125;-66
2023/12/26 06:32:42;;;;;;;2.80;1.77;;;19.20;58.20;;;;;;4966276;28;20104;-66
2023/12/26 06:35:08;;;;;;;1.77;1.27;;;19.20;58.30;;;;;;4969060;28;20042;-67
2023/12/26 06:37:33;;;;;;;1.63;1.05;;;19.20;58.40;;;;;;4967795;28;20089;-66
2023/12/26 06:39:59;;;;;;;1.75;1.08;;;19.20;58.50;;;;;;4966452;28;20514;-66
2023/12/26 06:42:24;;;;;;;2.28;1.30;;;19.20;58.70;;;;;;4967549;28;20353;-67
2023/12/26 06:44:51;;;;;;;1.95;1.30;;;19.10;58.70;;;;;;4967823;28;20105;-65
2023/12/26 06:47:17;;;;;;;1.20;1.02;;;19.00;58.80;;;;;;4967324;28;20497;-66
2023/12/26 06:49:46;;;;;;;1.92;1.00;;;19.00;58.80;;;;;;4967830;28;20034;-66
2023/12/26 06:52:14;;;;;;;1.85;1.13;;;19.00;58.90;;;;;;4966307;28;20105;-66
2023/12/26 06:54:40;;;;;;;1.42;1.20;;;18.90;59.00;;;;;;4968137;28;20034;-66
2023/12/26 06:57:08;;;;;;;2.20;1.55;;;18.90;59.10;;;;;;4968461;28;20515;-66
2023/12/26 06:59:34;;;;;;;2.08;1.08;;;18.90;59.20;;;;;;4963045;28;20054;-66
2023/12/26 07:01:59;;;;;;;1.15;0.80;;;18.80;59.30;;;;;;4965000;28;20490;-66
2023/12/26 07:04:25;;;;;;;1.67;1.05;;;18.80;59.30;;;;;;4969273;28;20066;-66
2023/12/26 07:06:50;;;;;;;1.02;0.85;;;18.70;59.40;;;;;;4967768;28;20035;-66
2023/12/26 07:09:16;;;;;;;1.63;1.02;;;18.70;59.60;;;;;;4970520;28;20632;-65
2023/12/26 07:11:41;;;;;;;1.60;0.98;;;18.70;59.60;;;;;;4967988;28;20031;-66
2023/12/26 07:14:07;;;;;;;1.58;0.88;;;18.70;60.40;;;;;;4968653;28;20418;-66
2023/12/26 07:16:33;;;;;;;1.98;1.08;;;18.60;59.80;;;;;;4965855;28;20033;-65
2023/12/26 07:18:59;;;;;;;1.30;0.82;;;18.50;59.80;;;;;;4967995;28;20397;-65
2023/12/26 07:21:24;;;;;;;2.15;1.40;;;18.60;59.90;;;;;;4966389;28;20031;-66
2023/12/26 07:23:50;;;;;;;1.45;1.10;;;18.50;60.00;;;;;;4966433;28;20030;-66
2023/12/26 07:26:15;;;;;;;1.48;1.08;;;18.50;60.10;;;;;;4968727;28;20113;-60
2023/12/26 07:28:41;;;;;;;1.50;0.90;;;18.50;60.20;;;;;;4967386;28;20410;-66
2023/12/26 07:31:07;;;;;;;1.23;0.90;;;18.40;60.20;;;;;;4965005;28;20118;-66
2023/12/26 07:33:32;;;;;;;1.20;0.98;;;18.40;60.20;;;;;;4968184;28;20061;-66
2023/12/26 07:35:58;;;;;;;1.08;0.90;;;18.40;60.30;;;;;;4972545;28;20023;-66
2023/12/26 07:38:24;;;;;;;1.38;0.90;;;18.40;60.30;;;;;;4968038;28;20574;-66
2023/12/26 07:40:50;;;;;;;1.48;1.00;;;18.30;60.30;;;;;;4968311;28;20121;-67
2023/12/26 07:43:16;;;;;;;1.80;0.98;;;18.40;60.40;;;;;;4968886;28;20035;-66
2023/12/26 07:45:42;;;;;;;1.02;0.80;;;18.30;60.50;;;;;;4970956;28;20062;-66
2023/12/26 07:48:07;;;;;;;1.42;0.90;;;18.30;60.50;;;;;;4968344;28;20498;-66
2023/12/26 07:50:33;;;;;;;1.35;0.80;;;18.30;60.50;;;;;;4968903;28;20041;-64
2023/12/26 07:52:58;;;;;;;1.00;0.80;;;18.30;60.60;;;;;;4973707;28;20054;-67
2023/12/26 07:55:24;;;;;;;0.68;0.60;;;18.30;60.60;;;;;;4968003;28;20081;-66
2023/12/26 07:57:50;;;;;;;1.35;0.70;;;18.30;60.70;;;;;;4970362;28;20125;-65
2023/12/26 08:00:16;;;;;;;1.30;0.90;;;18.30;60.70;;;;;;4970549;28;20030;-65
2023/12/26 08:02:42;;;;;;;1.10;0.68;;;18.30;60.70;;;;;;4972674;28;20082;-65
2023/12/26 08:05:09;;;;;;;1.02;0.75;;;18.20;60.60;;;;;;4970458;28;20031;-67
2023/12/26 08:07:35;;;;;;;1.23;0.85;;;18.20;60.70;;;;;;4968640;28;20445;-66
2023/12/26 08:10:00;;;;;;;1.38;0.63;;;18.20;60.80;;;;;;4970316;28;20047;-65
2023/12/26 08:12:26;;;;;;;1.63;0.57;;;18.20;60.70;;;;;;4969956;28;20043;-68
2023/12/26 08:14:51;;;;;;;1.05;0.80;;;18.20;60.70;;;;;;4968389;28;20031;-66
2023/12/26 08:17:17;;;;;;;1.00;0.63;;;18.20;60.70;;;;;;4970146;28;20034;-66
2023/12/26 08:19:42;;;;;;;2.33;1.00;;;18.20;61.30;;;;;;4969212;28;20034;-59
2023/12/26 08:22:08;;;;;;;1.92;0.70;;;18.20;60.70;;;;;;4968778;28;20038;-62
2023/12/26 08:24:33;;;;;;;1.15;0.70;;;18.20;60.70;;;;;;4968354;28;20397;-66
2023/12/26 08:26:59;;;;;;;1.20;0.77;;;18.10;60.60;;;;;;4970307;28;20065;-66
2023/12/26 08:29:24;;;;;;;1.17;0.75;;;18.20;60.90;;;;;;4968310;28;20062;-66
2023/12/26 08:31:50;;;;;;;1.00;0.75;;;18.10;60.80;;;;;;4969910;28;20035;-66
2023/12/26 08:34:15;;;;;;;0.90;0.52;;;18.10;60.80;;;;;;4968187;28;20030;-70
2023/12/26 08:36:41;;;;;;;0.90;0.60;;;18.10;61.00;;;;;;4969889;28;20031;-66
2023/12/26 08:39:06;;;;;;;1.45;0.70;;;18.10;60.90;;;;;;4969887;28;20034;-66
2023/12/26 08:41:32;;;;;;;1.80;0.85;;;18.10;60.90;;;;;;4968585;28;20612;-67
2023/12/26 08:43:57;;;;;;;1.90;1.00;;;18.10;60.90;;;;;;4971144;28;20033;-67
2023/12/26 08:46:23;;;;;;;3.83;0.90;;;18.10;61.10;;;;;;4968546;28;20031;-66
2023/12/26 08:48:48;;;;;;;1.42;0.70;;;18.10;60.90;;;;;;4968300;28;20031;-68
2023/12/26 08:51:14;;;;;;;2.22;1.23;;;18.10;61.00;;;;;;4968158;28;20019;-68
2023/12/26 08:53:39;;;;;;;2.67;1.05;;;18.00;60.90;;;;;;4973336;28;20536;-66
2023/12/26 08:56:05;;;;;;;1.15;1.00;;;18.00;60.90;;;;;;4968168;28;20462;-66
2023/12/26 08:58:32;;;;;;;1.77;1.00;;;18.10;60.90;;;;;;4969485;28;20126;-67
2023/12/26 09:00:59;;;;;;;2.13;1.15;;;18.00;60.90;;;;;;4968814;28;20058;-66
2023/12/26 09:03:24;;;;;;;2.22;1.33;;;18.00;60.90;;;;;;4967541;28;20402;-67
2023/12/26 09:05:50;;;;;;;2.03;1.35;;;18.00;60.90;;;;;;4970761;28;25179;-66
2023/12/26 09:08:15;;;;;;;2.20;1.30;;;18.00;60.90;;;;;;4972540;28;20501;-66
2023/12/26 09:10:40;;;;;;;2.65;1.23;;;18.00;61.00;;;;;;4971545;28;20074;-67
2023/12/26 09:13:06;;;;;;;2.80;1.10;;;18.00;61.00;;;;;;4970191;28;20086;-67
2023/12/26 09:15:32;;;;;;;2.78;1.55;;;18.00;61.00;;;;;;4968835;28;20525;-67
2023/12/26 09:17:57;;;;;;;1.70;1.23;;;18.00;61.10;;;;;;4968987;28;20039;-66
2023/12/26 09:20:23;;;;;;;1.88;1.40;;;17.90;61.00;;;;;;4967377;28;20410;-68
2023/12/26 09:22:49;;;;;;;1.92;1.30;;;17.90;61.00;;;;;;4969387;28;20035;-67
2023/12/26 09:25:15;;;;;;;3.22;1.63;;;17.90;61.00;;;;;;4970293;28;20038;-67
2023/12/26 09:27:42;;;;;;;2.42;1.70;;;17.90;61.10;;;;;;4967505;28;20046;-65
2023/12/26 09:30:09;;;;;;;3.72;1.63;;;17.90;61.00;;;;;;4967686;28;20046;-66
2023/12/26 09:32:34;;;;;;;5.07;2.10;;;17.90;61.00;;;;;;4967693;28;20066;-66
2023/12/26 09:35:00;;;;;;;4.65;2.40;;;17.90;61.20;;;;;;4970330;28;20545;-66
2023/12/26 09:37:25;;;;;;;5.88;2.20;;;17.90;61.30;;;;;;4967933;28;20065;-66
2023/12/26 09:39:51;;;;;;;6.40;2.40;;;17.90;61.30;;;;;;4969128;28;20053;-66
2023/12/26 09:42:22;;;;;;;5.75;2.60;;;17.90;61.20;;;;;;4971681;28;20509;-67
2023/12/26 09:44:49;;;;;;;7.97;2.70;;;17.90;61.40;;;;;;4969007;28;20031;-66
2023/12/26 09:47:14;;;;;;;7.40;3.22;;;17.90;61.50;;;;;;4970090;28;20031;-66
2023/12/26 09:49:43;;;;;;;11.10;4.20;;;17.90;61.50;;;;;;4968638;28;20031;-67
2023/12/26 09:52:09;;;;;;;12.27;4.55;;;17.90;61.50;;;;;;4970069;28;20478;-67
2023/12/26 09:54:38;;;;;;;9.90;4.50;;;17.90;61.60;;;;;;4984173;28;20042;-67
2023/12/26 09:57:05;;;;;;;10.75;4.57;;;17.90;61.70;;;;;;4968670;28;20116;-63
2023/12/26 09:59:34;;;;;;;15.25;6.10;;;17.90;61.70;;;;;;4971794;28;20032;-67
2023/12/26 10:01:59;;;;;;;14.68;5.78;;;17.90;61.80;;;;;;4970518;28;20109;-65
2023/12/26 10:04:25;;;;;;;17.23;7.18;;;17.90;61.70;;;;;;4970724;28;20493;-67
2023/12/26 10:06:50;;;;;;;14.05;5.78;;;17.80;61.80;;;;;;4968042;28;20026;-67
2023/12/26 10:09:18;;;;;;;17.25;7.50;;;17.80;61.80;;;;;;4968903;28;20307;-67
2023/12/26 10:11:44;;;;;;;20.48;8.43;;;17.80;61.90;;;;;;4967407;28;20569;-67
2023/12/26 10:14:10;;;;;;;26.08;8.95;;;17.90;61.90;;;;;;4963323;28;20078;-66
2023/12/26 10:16:36;;;;;;;21.08;8.13;;;17.80;62.10;;;;;;4966330;28;20122;-65
2023/12/26 10:19:01;;;;;;;24.40;9.70;;;17.80;62.10;;;;;;4967609;28;20018;-66
2023/12/26 10:21:27;;;;;;;18.13;9.35;;;17.80;61.90;;;;;;4966365;28;20050;-65
2023/12/26 10:23:55;;;;;;;31.00;10.45;;;17.80;61.70;;;;;;4967433;28;20034;-63
2023/12/26 10:26:20;;;;;;;24.08;10.32;;;17.80;62.00;;;;;;4967790;28;20555;-64
2023/12/26 10:28:46;;;;;;;22.48;9.60;;;17.80;62.00;;;;;;4966600;28;20027;-67
2023/12/26 10:31:14;;;;;;;25.90;9.40;;;17.80;61.90;;;;;;4967364;28;20390;-65
2023/12/26 10:33:41;;;;;;;22.17;10.48;;;17.80;62.00;;;;;;4967202;28;20031;-66
2023/12/26 10:36:08;;;;;;;34.38;13.70;;;17.80;62.10;;;;;;4968133;28;20039;-64
2023/12/26 10:38:34;;;;;;;35.63;14.93;;;17.80;62.80;;;;;;4965973;28;20046;-64
2023/12/26 10:41:06;;;;;;;36.63;16.48;;;17.80;63.00;;;;;;4965990;28;20126;-66
2023/12/26 10:43:32;;;;;;;35.63;15.52;;;17.80;63.10;;;;;;4977341;28;20107;-67
2023/12/26 10:45:59;;;;;;;34.15;15.15;;;17.80;62.90;;;;;;4967126;28;20359;-65
2023/12/26 10:48:30;;;;;;;33.72;14.18;;;17.80;63.10;;;;;;4963903;28;20089;-67
2023/12/26 10:50:59;;;;;;;38.90;14.85;;;17.80;62.90;;;;;;4962982;28;20061;-68
2023/12/26 10:53:31;;;;;;;39.17;15.40;;;17.80;63.00;;;;;;4965877;28;20042;-66
2023/12/26 10:55:58;;;;;;;32.53;14.68;;;17.80;63.00;;;;;;4964549;28;20034;-65
2023/12/26 10:58:29;;;;;;;34.67;15.48;;;17.80;63.80;;;;;;4964010;28;20117;-65
2023/12/26 11:00:55;;;;;;;34.70;15.85;;;17.80;62.90;;;;;;4976849;28;20031;-67
2023/12/26 11:03:20;;;;;;;31.58;14.82;;;17.80;63.20;;;;;;4962636;28;20023;-66
2023/12/26 11:05:46;;;;;;;34.05;14.85;;;17.80;63.00;;;;;;4965476;28;20113;-65
2023/12/26 11:08:12;;;;;;;33.17;15.05;;;17.80;63.10;;;;;;4966539;28;20066;-66
2023/12/26 11:10:37;;;;;;;34.67;15.35;;;17.80;63.20;;;;;;4967016;28;20031;-66
2023/12/26 11:13:03;;;;;;;32.72;15.00;;;17.80;63.20;;;;;;4964557;28;20030;-67
2023/12/26 11:15:31;;;;;;;31.38;14.80;;;17.80;63.50;;;;;;4964011;28;20035;-67
2023/12/26 11:17:57;;;;;;;31.48;14.18;;;17.80;63.20;;;;;;4960650;28;20038;-66
2023/12/26 11:20:22;;;;;;;30.13;14.55;;;17.80;63.00;;;;;;4959415;28;22069;-66
2023/12/26 11:22:48;;;;;;;37.83;13.52;;;17.80;62.80;;;;;;4958875;28;20066;-66
2023/12/26 11:25:13;;;;;;;30.65;13.93;;;17.80;62.80;;;;;;4958220;28;20055;-67
2023/12/26 11:27:39;;;;;;;35.92;13.30;;;17.80;62.70;;;;;;4973504;28;20355;-65
2023/12/26 11:30:04;;;;;;;26.90;12.15;;;17.80;62.90;;;;;;4960534;28;20097;-67
2023/12/26 11:32:30;;;;;;;33.08;13.32;;;17.70;62.80;;;;;;4975169;28;20057;-65
2023/12/26 11:34:56;;;;;;;33.58;12.77;;;17.80;62.70;;;;;;4962116;28;20389;-66
2023/12/26 11:37:21;;;;;;;28.25;12.80;;;17.70;62.60;;;;;;4959847;28;20445;-66
2023/12/26 11:39:47;;;;;;;27.58;12.65;;;17.70;62.80;;;;;;4959204;28;20126;-66
2023/12/26 11:42:12;;;;;;;28.15;13.20;;;17.70;62.70;;;;;;4962975;28;20290;-66
2023/12/26 11:44:38;;;;;;;26.88;12.30;;;17.70;62.80;;;;;;4961728;28;20045;-63
2023/12/26 11:47:04;;;;;;;25.65;12.25;;;17.70;62.80;;;;;;4976845;28;20066;-66
2023/12/26 11:49:29;;;;;;;30.35;13.30;;;17.70;62.90;;;;;;4961593;28;20057;-64
2023/12/26 11:51:54;;;;;;;27.13;12.20;;;17.70;62.90;;;;;;4957648;28;20137;-66
2023/12/26 11:54:20;;;;;;;28.95;11.75;;;17.70;62.80;;;;;;4962384;28;20023;-60
2023/12/26 11:56:46;;;;;;;26.90;11.77;;;17.70;62.90;;;;;;4961868;28;20502;-67
2023/12/26 11:59:11;;;;;;;32.67;12.30;;;17.70;62.80;;;;;;4960545;28;20394;-64
2023/12/26 12:01:37;;;;;;;31.08;12.35;;;17.70;63.00;;;;;;4961732;28;20197;-64
2023/12/26 12:04:02;;;;;;;29.05;12.20;;;17.70;63.00;;;;;;4962278;28;20058;-65
2023/12/26 12:06:27;;;;;;;31.63;14.13;;;17.70;63.10;;;;;;4962041;28;20075;-65
2023/12/26 12:09:16;;;;;;;33.78;13.82;;;17.70;63.00;;;;;;4958589;28;20039;-63
2023/12/26 12:11:50;;;;;;;28.52;12.77;;;17.70;63.00;;;;;;4961581;28;20458;-66
2023/12/26 12:14:15;;;;;;;36.08;21.17;;;17.70;63.20;;;;;;4956498;28;20475;-68
2023/12/26 12:16:41;;;;;;;51.13;27.60;;;17.70;63.50;;;;;;4962878;28;20122;-66
2023/12/26 12:19:13;;;;;;;54.38;31.63;;;17.70;63.60;;;;;;4963009;28;20139;-66
2023/12/26 12:21:39;;;;;;;56.55;34.78;;;17.80;63.70;;;;;;4963434;28;20093;-65
2023/12/26 12:24:05;;;;;;;60.05;34.95;;;17.70;63.60;;;;;;4963169;28;20390;-66
2023/12/26 12:27:03;;;;;;;59.15;33.30;;;17.70;63.80;;;;;;4969806;28;20029;-65
2023/12/26 12:29:57;;;;;;;68.30;38.95;;;17.70;64.30;;;;;;4969435;28;20690;-66
2023/12/26 12:32:33;;;;;;;70.07;38.53;;;17.70;63.90;;;;;;4967135;28;20053;-65
2023/12/26 12:35:14;;;;;;;;;;;17.70;63.70;;;;;;4968421;28;20038;-64
2023/12/26 12:37:40;;;;;;;64.35;37.78;;;17.80;63.80;;;;;;4975594;28;19914;-66